createdAt,value
2017-10-03T00:01:54.059Z,98.10
2017-10-03T00:04:25.791Z,98.10
2017-10-03T00:06:56.778Z,98.10
2017-10-03T00:09:28.157Z,98.10
2017-10-03T00:11:59.110Z,98.00
2017-10-03T00:14:31.487Z,98.00
2017-10-03T00:17:02.481Z,97.40
2017-10-03T00:19:33.459Z,96.20
2017-10-03T00:22:04.446Z,95.80
2017-10-03T00:24:35.424Z,95.60
2017-10-03T00:27:06.755Z,95.40
2017-10-03T00:29:37.714Z,95.40
2017-10-03T00:32:08.718Z,95.40
2017-10-03T00:34:39.657Z,95.60
2017-10-03T00:37:10.635Z,95.70
2017-10-03T00:39:42.038Z,95.80
2017-10-03T00:42:13.011Z,95.90
2017-10-03T00:44:44.381Z,96.00
2017-10-03T00:47:15.338Z,96.00
2017-10-03T00:49:46.319Z,96.00
2017-10-03T00:52:17.304Z,96.10
2017-10-03T00:54:48.295Z,96.20
2017-10-03T00:57:19.770Z,96.10
2017-10-03T00:59:50.789Z,96.00
2017-10-03T01:02:21.739Z,95.90
2017-10-03T01:04:52.718Z,96.10
2017-10-03T01:07:23.961Z,96.10
2017-10-03T01:09:55.299Z,96.10
2017-10-03T01:12:26.262Z,95.80
2017-10-03T01:14:58.554Z,95.40
2017-10-03T01:17:29.498Z,95.30
2017-10-03T01:20:00.487Z,95.20
2017-10-03T01:22:31.449Z,95.10
2017-10-03T01:25:03.206Z,94.60
2017-10-03T01:27:35.475Z,94.40
2017-10-03T01:30:07.316Z,94.40
2017-10-03T01:32:38.269Z,94.30
2017-10-03T01:35:09.241Z,94.40
2017-10-03T01:37:50.794Z,94.40
2017-10-03T01:40:22.234Z,94.30
2017-10-03T01:42:53.206Z,94.20
2017-10-03T01:45:25.232Z,94.10
2017-10-03T01:47:56.162Z,94.10
2017-10-03T01:50:27.177Z,93.80
2017-10-03T01:52:58.172Z,93.80
2017-10-03T01:55:29.916Z,94.20
2017-10-03T01:58:01.517Z,94.20
2017-10-03T02:00:32.826Z,94.60
2017-10-03T02:03:03.795Z,94.80
2017-10-03T02:05:35.125Z,94.50
2017-10-03T02:08:06.096Z,94.20
2017-10-03T02:10:37.194Z,93.80
2017-10-03T02:13:08.179Z,94.10
2017-10-03T02:15:39.330Z,94.20
2017-10-03T02:18:10.326Z,93.80
2017-10-03T02:20:42.367Z,93.50
2017-10-03T02:23:13.510Z,93.50
2017-10-03T02:25:44.591Z,93.30
2017-10-03T02:28:17.554Z,93.20
2017-10-03T02:30:48.538Z,93.20
2017-10-03T02:33:19.521Z,93.50
2017-10-03T02:35:50.527Z,93.70
2017-10-03T02:38:21.506Z,93.80
2017-10-03T02:40:52.822Z,93.90
2017-10-03T02:43:23.834Z,93.60
2017-10-03T02:45:54.915Z,94.30
2017-10-03T02:48:25.921Z,93.90
2017-10-03T02:50:56.937Z,94.00
2017-10-03T02:53:28.714Z,94.20
2017-10-03T02:55:59.671Z,94.20
2017-10-03T02:58:31.886Z,94.30
2017-10-03T03:01:03.648Z,94.20
2017-10-03T03:03:35.589Z,94.10
2017-10-03T03:06:06.632Z,94.10
2017-10-03T03:08:37.622Z,93.60
2017-10-03T03:11:08.904Z,94.10
2017-10-03T03:13:39.874Z,94.10
2017-10-03T03:16:10.842Z,94.00
2017-10-03T03:18:42.871Z,94.10
2017-10-03T03:21:13.915Z,94.00
2017-10-03T03:23:45.235Z,93.80
2017-10-03T03:26:16.204Z,93.40
2017-10-03T03:28:47.613Z,93.30
2017-10-03T03:31:18.580Z,92.50
2017-10-03T03:33:49.549Z,92.30
2017-10-03T03:36:21.291Z,92.20
2017-10-03T03:38:52.259Z,92.20
2017-10-03T03:41:23.564Z,92.00
2017-10-03T03:43:54.518Z,91.50
2017-10-03T03:46:26.243Z,91.10
2017-10-03T03:48:57.247Z,91.10
2017-10-03T03:51:28.214Z,90.80
2017-10-03T03:53:59.178Z,90.70
2017-10-03T03:56:30.158Z,90.60
2017-10-03T03:59:02.464Z,91.00
2017-10-03T04:01:33.490Z,90.90
2017-10-03T04:04:04.471Z,91.20
2017-10-03T04:06:35.450Z,90.90
2017-10-03T04:09:06.755Z,91.30
2017-10-03T04:11:38.263Z,91.30
2017-10-03T04:14:09.254Z,91.30
2017-10-03T04:16:40.225Z,91.30
2017-10-03T04:19:11.773Z,91.10
2017-10-03T04:21:43.581Z,91.40
2017-10-03T04:24:16.707Z,91.40
2017-10-03T04:26:48.311Z,91.60
2017-10-03T04:29:20.277Z,91.60
2017-10-03T04:31:51.960Z,91.50
2017-10-03T04:34:23.515Z,91.40
2017-10-03T04:36:55.076Z,91.30
2017-10-03T04:39:26.709Z,90.50
2017-10-03T04:41:58.478Z,90.70
2017-10-03T04:44:30.086Z,90.70
2017-10-03T04:47:01.697Z,90.80
2017-10-03T04:49:33.283Z,90.90
2017-10-03T04:52:04.847Z,90.90
2017-10-03T04:54:37.557Z,90.30
2017-10-03T04:57:09.195Z,90.50
2017-10-03T04:59:41.136Z,89.00
2017-10-03T05:02:13.526Z,88.30
2017-10-03T05:04:45.121Z,88.30
2017-10-03T05:07:16.647Z,88.10
2017-10-03T05:09:48.192Z,88.40
2017-10-03T05:12:19.927Z,88.50
2017-10-03T05:14:51.522Z,88.50
2017-10-03T05:17:24.553Z,86.70
2017-10-03T05:19:57.178Z,87.20
2017-10-03T05:22:28.778Z,87.20
2017-10-03T05:25:01.669Z,86.00
2017-10-03T05:27:34.009Z,86.20
2017-10-03T05:30:05.609Z,86.20
2017-10-03T05:32:37.218Z,86.00
2017-10-03T05:35:08.852Z,85.90
2017-10-03T05:37:40.781Z,85.40
2017-10-03T05:40:13.067Z,82.80
2017-10-03T05:42:46.286Z,82.80
2017-10-03T05:45:17.864Z,82.80
2017-10-03T05:47:49.588Z,81.30
2017-10-03T05:50:21.184Z,81.30
2017-10-03T05:52:53.564Z,79.60
2017-10-03T05:55:26.327Z,80.00
2017-10-03T05:57:57.980Z,80.00
2017-10-03T06:00:29.617Z,81.00
2017-10-03T06:03:01.234Z,81.70
2017-10-03T06:05:32.798Z,82.20
2017-10-03T06:08:05.708Z,82.10
2017-10-03T06:10:37.378Z,83.20
2017-10-03T06:13:09.291Z,83.20
2017-10-03T06:15:40.892Z,81.70
2017-10-03T06:18:13.891Z,81.70
2017-10-03T06:20:45.522Z,82.00
2017-10-03T06:23:17.396Z,83.00
2017-10-03T06:25:49.588Z,83.10
2017-10-03T06:28:21.968Z,82.90
2017-10-03T06:30:53.629Z,82.80
2017-10-03T06:33:25.522Z,83.50
2017-10-03T06:35:57.157Z,84.30
2017-10-03T06:38:29.123Z,83.80
2017-10-03T06:41:00.782Z,83.50
2017-10-03T06:43:32.387Z,83.70
2017-10-03T06:46:03.995Z,83.70
2017-10-03T06:48:35.835Z,82.20
2017-10-03T06:51:08.334Z,80.70
2017-10-03T06:53:40.006Z,81.20
2017-10-03T06:56:16.109Z,81.60
2017-10-03T06:58:52.640Z,83.20
2017-10-03T07:01:25.235Z,83.10
2017-10-03T07:03:57.703Z,84.10
2017-10-03T07:06:29.366Z,84.10
2017-10-03T07:09:02.053Z,86.10
2017-10-03T07:11:34.486Z,86.70
2017-10-03T07:14:06.177Z,86.60
2017-10-03T07:16:37.838Z,86.90
2017-10-03T07:19:10.341Z,88.10
2017-10-03T07:21:43.144Z,88.10
2017-10-03T07:24:15.133Z,88.30
2017-10-03T07:26:47.226Z,88.60
2017-10-03T07:29:19.690Z,88.60
2017-10-03T07:31:53.009Z,88.60
2017-10-03T07:37:00.566Z,89.00
2017-10-03T07:39:32.232Z,89.50
2017-10-03T07:42:03.937Z,89.20
2017-10-03T07:44:35.618Z,89.00
2017-10-03T07:47:09.382Z,89.20
2017-10-03T07:49:43.199Z,89.70
2017-10-03T07:52:16.838Z,89.70
2017-10-03T07:54:48.501Z,89.80
2017-10-03T07:57:20.221Z,90.00
2017-10-03T07:59:51.916Z,90.00
2017-10-03T08:02:23.581Z,90.10
2017-10-03T08:04:55.606Z,89.70
2017-10-03T08:10:03.899Z,90.10
2017-10-03T08:12:36.323Z,90.00
2017-10-03T08:15:08.018Z,89.90
2017-10-03T08:17:40.680Z,89.50
2017-10-03T08:20:12.361Z,89.50
2017-10-03T08:22:45.544Z,89.20
2017-10-03T08:25:18.362Z,89.20
2017-10-03T08:27:50.033Z,89.30
2017-10-03T08:30:21.861Z,89.30
2017-10-03T08:32:54.288Z,88.70
2017-10-03T08:35:26.461Z,88.60
2017-10-03T08:37:58.155Z,88.90
2017-10-03T08:40:30.597Z,89.10
2017-10-03T08:43:02.258Z,89.10
2017-10-03T08:45:33.949Z,89.10
2017-10-03T08:48:06.691Z,89.20
2017-10-03T08:50:38.610Z,89.10
2017-10-03T08:53:10.394Z,88.80
2017-10-03T08:55:42.094Z,88.70
2017-10-03T08:58:14.577Z,88.80
2017-10-03T09:00:46.656Z,88.80
2017-10-03T09:03:19.279Z,88.80
2017-10-03T09:05:51.040Z,89.00
2017-10-03T09:08:22.749Z,88.60
2017-10-03T09:10:54.480Z,89.50
2017-10-03T09:13:26.932Z,89.60
2017-10-03T09:15:58.660Z,89.60
2017-10-03T09:18:30.643Z,90.00
2017-10-03T09:21:02.813Z,89.70
2017-10-03T09:23:34.503Z,89.60
2017-10-03T09:26:07.170Z,89.70
2017-10-03T09:28:39.581Z,89.70
2017-10-03T09:31:12.786Z,89.70
2017-10-03T09:33:44.508Z,89.80
2017-10-03T09:36:16.978Z,89.20
2017-10-03T09:38:48.658Z,89.20
2017-10-03T09:41:20.394Z,89.40
2017-10-03T09:43:53.229Z,89.90
2017-10-03T09:46:26.397Z,89.90
2017-10-03T09:48:58.280Z,89.70
2017-10-03T09:51:29.952Z,90.10
2017-10-03T09:54:01.638Z,90.10
2017-10-03T09:56:34.109Z,90.20
2017-10-03T09:59:06.575Z,90.30
2017-10-03T10:01:39.390Z,90.50
2017-10-03T10:04:12.164Z,90.50
2017-10-03T10:06:43.823Z,90.60
2017-10-03T10:09:15.490Z,91.20
2017-10-03T10:11:49.384Z,91.30
2017-10-03T10:14:21.419Z,91.30
2017-10-03T10:16:53.075Z,91.30
2017-10-03T10:19:25.518Z,91.40
2017-10-03T10:21:57.164Z,91.40
2017-10-03T10:24:28.858Z,91.50
2017-10-03T10:27:01.063Z,91.40
2017-10-03T10:29:32.729Z,91.60
2017-10-03T10:32:04.810Z,91.90
2017-10-03T10:34:36.805Z,91.90
2017-10-03T10:37:08.475Z,92.00
2017-10-03T10:39:40.921Z,92.10
2017-10-03T10:42:12.593Z,92.10
2017-10-03T10:44:44.274Z,92.10
2017-10-03T10:47:16.750Z,92.10
2017-10-03T10:49:49.213Z,92.10
2017-10-03T10:52:21.757Z,92.20
2017-10-03T10:54:53.462Z,92.20
2017-10-03T10:57:25.376Z,92.20
2017-10-03T10:59:57.053Z,92.40
2017-10-03T11:02:29.529Z,92.50
2017-10-03T11:05:01.998Z,92.70
2017-10-03T11:07:35.790Z,92.90
2017-10-03T11:10:07.845Z,92.90
2017-10-03T11:12:39.557Z,93.00
2017-10-03T11:15:11.371Z,93.10
2017-10-03T11:17:43.044Z,93.10
2017-10-03T11:20:15.531Z,93.20
2017-10-03T11:22:58.269Z,93.10
2017-10-03T11:25:29.921Z,93.20
2017-10-03T11:28:01.704Z,93.30
2017-10-03T11:30:34.839Z,93.40
2017-10-03T11:33:07.365Z,93.50
2017-10-03T11:35:39.051Z,93.50
2017-10-03T11:38:12.035Z,93.60
2017-10-03T11:40:44.280Z,93.60
2017-10-03T11:43:15.961Z,93.70
2017-10-03T11:45:49.057Z,93.70
2017-10-03T11:48:22.573Z,93.80
2017-10-03T11:50:55.031Z,93.90
2017-10-03T11:53:27.197Z,93.90
2017-10-03T11:55:58.849Z,93.90
2017-10-03T11:58:30.690Z,93.90
2017-10-03T12:01:02.403Z,93.80
2017-10-03T12:03:34.111Z,93.70
2017-10-03T12:06:05.819Z,93.80
2017-10-03T12:08:37.533Z,94.00
2017-10-03T12:11:09.424Z,93.80
2017-10-03T12:13:41.900Z,93.40
2017-10-03T12:16:14.375Z,93.30
2017-10-03T12:18:46.833Z,93.30
2017-10-03T12:21:19.298Z,93.30
2017-10-03T12:23:51.349Z,93.30
2017-10-03T12:26:23.994Z,93.30
2017-10-03T12:28:55.701Z,93.30
2017-10-03T12:31:28.302Z,93.60
2017-10-03T12:34:00.770Z,94.00
2017-10-03T12:36:33.622Z,93.80
2017-10-03T12:39:05.494Z,93.80
2017-10-03T12:41:38.369Z,94.00
2017-10-03T12:44:10.043Z,94.20
2017-10-03T12:46:42.513Z,94.30
2017-10-03T12:49:14.181Z,94.30
2017-10-03T12:51:45.909Z,94.20
2017-10-03T12:54:19.531Z,94.10
2017-10-03T12:56:53.138Z,94.30
2017-10-03T12:59:25.690Z,94.40
2017-10-03T13:01:58.613Z,94.40
2017-10-03T13:04:31.079Z,94.50
2017-10-03T13:07:03.933Z,94.50
2017-10-03T13:09:35.637Z,94.50
2017-10-03T13:12:07.166Z,94.60
2017-10-03T13:14:41.670Z,94.50
2017-10-03T13:19:48.167Z,94.70
2017-10-03T13:22:20.651Z,94.90
2017-10-03T13:24:53.178Z,94.90
2017-10-03T13:27:24.885Z,94.90
2017-10-03T13:29:57.427Z,94.80
2017-10-03T13:32:30.806Z,94.70
2017-10-03T13:35:04.022Z,94.60
2017-10-03T13:37:36.963Z,94.60
2017-10-03T13:40:08.618Z,94.60
2017-10-03T13:42:40.342Z,94.60
2017-10-03T13:45:13.784Z,94.50
2017-10-03T13:47:45.550Z,94.50
2017-10-03T13:50:17.749Z,94.50
2017-10-03T13:52:50.691Z,94.50
2017-10-03T13:55:24.255Z,94.60
2017-10-03T13:57:56.712Z,94.70
2017-10-03T14:00:29.230Z,94.70
2017-10-03T14:03:02.983Z,94.70
2017-10-03T14:05:34.661Z,94.70
2017-10-03T14:08:07.159Z,94.50
2017-10-03T14:10:39.842Z,94.50
2017-10-03T14:13:13.025Z,94.60
2017-10-03T14:15:44.842Z,94.50
2017-10-03T14:18:17.658Z,94.40
2017-10-03T14:20:49.693Z,94.50
2017-10-03T14:23:22.243Z,94.60
2017-10-03T14:25:53.917Z,94.60
2017-10-03T14:28:25.686Z,94.70
2017-10-03T14:30:57.417Z,94.60
2017-10-03T14:33:29.071Z,94.70
2017-10-03T14:36:00.764Z,94.80
2017-10-03T14:41:09.934Z,94.90
2017-10-03T14:43:41.953Z,94.90
2017-10-03T14:46:13.877Z,94.90
2017-10-03T14:48:45.670Z,95.00
2017-10-03T14:53:53.389Z,95.10
2017-10-03T14:56:25.534Z,95.20
2017-10-03T14:59:01.159Z,95.20
2017-10-03T15:01:34.946Z,95.30
2017-10-03T15:04:07.674Z,95.30
2017-10-03T15:06:39.384Z,95.30
2017-10-03T15:09:13.295Z,95.20
2017-10-03T15:11:45.026Z,95.20
2017-10-03T15:14:17.865Z,95.30
2017-10-03T15:16:49.651Z,95.40
2017-10-03T15:19:21.335Z,95.30
2017-10-03T15:21:53.794Z,95.40
2017-10-03T15:24:25.487Z,95.30
2017-10-03T15:26:57.198Z,95.40
2017-10-03T15:29:28.953Z,95.50
2017-10-03T15:32:01.993Z,95.50
2017-10-03T15:34:33.674Z,95.50
2017-10-03T15:37:05.342Z,95.60
2017-10-03T15:39:37.028Z,95.50
2017-10-03T15:42:11.254Z,95.60
2017-10-03T15:44:43.727Z,95.60
2017-10-03T15:47:16.503Z,95.60
2017-10-03T15:49:48.985Z,95.70
2017-10-03T15:52:21.502Z,95.70
2017-10-03T15:54:53.190Z,95.70
2017-10-03T15:57:24.862Z,95.70
2017-10-03T15:59:56.714Z,95.70
2017-10-03T16:02:35.990Z,95.70
2017-10-03T16:05:07.683Z,95.80
2017-10-03T16:07:39.398Z,95.80
2017-10-03T16:10:10.928Z,95.80
2017-10-03T16:12:43.285Z,95.90
2017-10-03T16:15:14.245Z,96.20
2017-10-03T16:17:46.004Z,95.90
2017-10-03T16:20:17.752Z,96.00
2017-10-03T16:22:49.497Z,96.00
2017-10-03T16:25:21.554Z,96.00
2017-10-03T16:27:52.557Z,96.10
2017-10-03T16:30:24.027Z,96.10
2017-10-03T16:32:55.008Z,96.10
2017-10-03T16:35:26.758Z,96.10
2017-10-03T16:37:58.489Z,96.10
2017-10-03T16:40:29.457Z,96.10
2017-10-03T16:43:01.541Z,96.20
2017-10-03T16:45:32.538Z,96.20
2017-10-03T16:48:03.538Z,96.20
2017-10-03T16:50:34.516Z,96.30
2017-10-03T16:53:05.480Z,96.30
2017-10-03T16:55:37.760Z,96.30
2017-10-03T16:58:09.532Z,96.30
2017-10-03T17:00:40.957Z,96.30
2017-10-03T17:03:13.025Z,96.30
2017-10-03T17:05:44.768Z,96.40
2017-10-03T17:08:15.756Z,96.30
2017-10-03T17:10:46.749Z,96.40
2017-10-03T17:13:18.825Z,96.40
2017-10-03T17:15:50.625Z,96.50
2017-10-03T17:18:21.623Z,96.50
2017-10-03T17:20:52.908Z,96.80
2017-10-03T17:23:23.444Z,96.70
2017-10-03T17:25:54.379Z,96.80
2017-10-03T17:28:26.238Z,96.90
2017-10-03T17:30:57.073Z,96.90
2017-10-03T17:33:27.569Z,96.90
2017-10-03T17:35:58.888Z,96.90
2017-10-03T17:38:29.409Z,96.90
2017-10-03T17:40:59.893Z,97.00
2017-10-03T17:43:30.731Z,97.00
2017-10-03T17:46:01.243Z,97.00
2017-10-03T17:48:32.509Z,97.00
2017-10-03T17:51:03.024Z,97.30
2017-10-03T17:53:33.529Z,96.90
2017-10-03T17:56:04.545Z,96.90
2017-10-03T17:58:35.079Z,96.90
2017-10-03T18:01:06.084Z,96.90
2017-10-03T18:03:36.598Z,97.00
2017-10-03T18:06:07.109Z,97.10
2017-10-03T18:08:38.360Z,97.10
2017-10-03T18:11:09.644Z,97.10
2017-10-03T18:13:40.873Z,97.10
2017-10-03T18:16:11.384Z,97.20
2017-10-03T18:18:41.880Z,97.20
2017-10-03T18:21:12.401Z,97.20
2017-10-03T18:23:42.936Z,97.20
2017-10-03T18:26:13.563Z,97.20
2017-10-03T18:28:44.077Z,97.10
2017-10-03T18:31:15.902Z,97.30
2017-10-03T18:33:46.413Z,97.30
2017-10-03T18:36:17.685Z,97.40
2017-10-03T18:38:48.188Z,97.40
2017-10-03T18:41:19.437Z,97.50
2017-10-03T18:43:50.144Z,97.50
2017-10-03T18:46:21.425Z,97.50
2017-10-03T18:48:51.929Z,97.50
2017-10-03T18:51:23.208Z,97.50
2017-10-03T18:53:54.636Z,97.50
2017-10-03T18:56:26.425Z,97.50
2017-10-03T18:58:56.943Z,97.50
2017-10-03T19:01:27.652Z,97.50
2017-10-03T19:03:58.929Z,97.50
2017-10-03T19:06:29.428Z,97.70
2017-10-03T19:09:00.720Z,97.50
2017-10-03T19:11:31.517Z,97.50
2017-10-03T19:14:02.412Z,97.60
2017-10-03T19:16:32.927Z,97.60
2017-10-03T19:19:03.448Z,97.60
2017-10-03T19:21:33.942Z,97.60
2017-10-03T19:24:04.446Z,97.60
2017-10-03T19:26:36.085Z,97.70
2017-10-03T19:29:06.590Z,97.70
2017-10-03T19:31:37.201Z,97.80
2017-10-03T19:34:07.709Z,97.80
2017-10-03T19:36:38.980Z,97.80
2017-10-03T19:39:09.492Z,97.80
2017-10-03T19:41:40.006Z,97.90
2017-10-03T19:44:12.404Z,98.30
2017-10-03T19:46:42.912Z,98.00
2017-10-03T19:49:14.205Z,97.90
2017-10-03T19:51:44.716Z,97.90
2017-10-03T19:54:15.232Z,97.90
2017-10-03T19:56:47.005Z,97.90
2017-10-03T19:59:17.513Z,97.90
2017-10-03T20:01:51.041Z,97.80
2017-10-03T20:04:21.560Z,97.80
2017-10-03T20:06:52.055Z,97.80
2017-10-03T20:09:23.336Z,97.80
2017-10-03T20:11:53.845Z,97.80
2017-10-03T20:14:24.825Z,97.80
2017-10-03T20:16:55.366Z,97.90
2017-10-03T20:19:25.909Z,97.80
2017-10-03T20:21:56.412Z,97.80
2017-10-03T20:24:26.908Z,97.80
2017-10-03T20:26:57.404Z,97.80
2017-10-03T20:29:28.668Z,97.80
2017-10-03T20:32:00.275Z,97.80
2017-10-03T20:34:30.804Z,97.80
2017-10-03T20:37:01.298Z,97.80
2017-10-03T20:39:31.792Z,97.90
2017-10-03T20:42:03.060Z,97.90
2017-10-03T20:44:34.121Z,97.90
2017-10-03T20:47:04.628Z,98.00
2017-10-03T20:49:36.043Z,98.00
2017-10-03T20:52:06.569Z,98.00
2017-10-03T20:54:37.081Z,98.00
2017-10-03T20:57:07.611Z,98.00
2017-10-03T20:59:38.116Z,98.00
2017-10-03T21:02:08.984Z,98.00
2017-10-03T21:04:40.257Z,98.00
2017-10-03T21:07:10.808Z,98.00
2017-10-03T21:09:41.329Z,97.90
2017-10-03T21:12:11.842Z,97.80
2017-10-03T21:14:43.293Z,97.70
2017-10-03T21:17:14.566Z,97.70
2017-10-03T21:19:45.505Z,97.70
2017-10-03T21:22:18.188Z,97.70
2017-10-03T21:24:48.721Z,97.70
2017-10-03T21:27:19.233Z,97.60
2017-10-03T21:29:49.732Z,97.60
2017-10-03T21:32:21.484Z,97.60
2017-10-03T21:34:53.052Z,97.60
2017-10-03T21:37:24.331Z,97.60
2017-10-03T21:39:54.857Z,97.60
2017-10-03T21:42:36.131Z,97.60
2017-10-03T21:45:07.276Z,97.60
2017-10-03T21:47:37.828Z,97.70
2017-10-03T21:50:08.336Z,97.70
2017-10-03T21:52:38.836Z,97.60
2017-10-03T21:55:10.113Z,97.60
2017-10-03T21:57:40.638Z,97.60
2017-10-03T22:00:11.136Z,97.50
2017-10-03T22:02:42.580Z,97.50
2017-10-03T22:05:13.890Z,97.40
2017-10-03T22:07:44.424Z,97.40
2017-10-03T22:10:14.933Z,97.40
2017-10-03T22:12:45.445Z,97.50
2017-10-03T22:15:16.349Z,97.50
2017-10-03T22:17:46.871Z,97.50
2017-10-03T22:20:17.401Z,97.50
2017-10-03T22:22:47.938Z,97.50
2017-10-03T22:25:20.144Z,97.40
2017-10-03T22:27:50.677Z,97.40
2017-10-03T22:30:21.194Z,97.40
2017-10-03T22:33:00.549Z,97.50
2017-10-03T22:35:31.069Z,97.60
2017-10-03T22:38:01.592Z,97.60
2017-10-03T22:40:32.095Z,97.70
2017-10-03T22:43:03.356Z,97.90
2017-10-03T22:45:33.951Z,97.80
2017-10-03T22:48:04.458Z,97.90
2017-10-03T22:50:34.959Z,97.90
2017-10-03T22:53:05.528Z,97.90
2017-10-03T22:55:36.063Z,98.00
2017-10-03T22:58:06.573Z,98.00
2017-10-03T23:00:37.104Z,98.00
2017-10-03T23:03:07.633Z,98.00
2017-10-03T23:05:38.137Z,98.00
2017-10-03T23:08:08.634Z,98.00
2017-10-03T23:10:39.908Z,98.10
2017-10-03T23:13:10.416Z,98.10
2017-10-03T23:15:41.577Z,98.10
2017-10-03T23:18:12.080Z,98.30
2017-10-03T23:20:43.625Z,97.80
2017-10-03T23:23:14.173Z,97.70
2017-10-03T23:25:44.690Z,97.80
2017-10-03T23:28:16.858Z,97.80
2017-10-03T23:30:48.189Z,97.80
2017-10-03T23:33:19.278Z,97.80
2017-10-03T23:35:49.791Z,97.70
2017-10-03T23:38:20.308Z,97.70
2017-10-03T23:40:51.584Z,97.70
2017-10-03T23:43:22.082Z,97.70
2017-10-03T23:45:53.708Z,97.80
2017-10-03T23:48:24.240Z,97.80
2017-10-03T23:50:55.085Z,97.80
2017-10-03T23:53:26.349Z,97.80
2017-10-03T23:55:57.630Z,97.80
2017-10-03T23:58:28.136Z,97.80
